Saline, Arkansas
Current Conditions -  °F | °C
As of 11:14 AM on Friday 19 Dec 2014 (Local Time) from KPBF Reporting Station
Overcast Overcast  
Wind Chill: 41°   Ceiling: 1300
Heat Index: 45°   Visibility: 10mi
Dew Point: 39°   Wind: 7mph
Humidity: 80%   Direction: 60°ENE
Pressure: 30.29"   Gusts: NA
Location:  33.8763°N, 92.3054°W
Report Text: KPBF 191714Z AUTO 06006KT 10SM BKN013 BKN050 OVC100 07/04 A3029 RMK AO2 T00720039
Loading
Personal Weather Stations






























Interactive Weather Map New forecast layout! Learn more

10-Day Weather Forecast

Advertisements
Track Severe Weather on mobile